createdAt,value
2018-03-04T00:01:23.832Z,3.30
2018-03-04T00:03:51.595Z,3.30
2018-03-04T00:06:18.606Z,3.50
2018-03-04T00:08:45.604Z,3.40
2018-03-04T00:11:12.606Z,3.50
2018-03-04T00:13:40.377Z,3.30
2018-03-04T00:16:08.175Z,3.30
2018-03-04T00:18:35.178Z,3.20
2018-03-04T00:21:02.191Z,3.30
2018-03-04T00:23:29.194Z,3.20
2018-03-04T00:25:56.203Z,3.20
2018-03-04T00:28:23.209Z,3.20
2018-03-04T00:30:50.219Z,3.20
2018-03-04T00:33:17.978Z,3.30
2018-03-04T00:35:45.763Z,3.30
2018-03-04T00:38:12.768Z,3.10
2018-03-04T00:40:39.794Z,3.30
2018-03-04T00:43:06.795Z,3.30
2018-03-04T00:45:33.810Z,3.30
2018-03-04T00:48:00.814Z,3.40
2018-03-04T00:50:27.822Z,3.40
2018-03-04T00:52:55.591Z,3.60
2018-03-04T00:55:23.355Z,3.50
2018-03-04T00:57:51.141Z,3.30
2018-03-04T01:00:18.138Z,3.20
2018-03-04T01:02:45.155Z,3.30
2018-03-04T01:05:12.159Z,3.20
2018-03-04T01:07:39.931Z,3.10
2018-03-04T01:10:06.940Z,3.10
2018-03-04T01:12:33.955Z,3.10
2018-03-04T01:15:00.976Z,3.10
2018-03-04T01:17:27.974Z,3.20
2018-03-04T01:19:54.996Z,3.30
2018-03-04T01:22:22.012Z,3.30
2018-03-04T01:24:49.023Z,3.30
2018-03-04T01:27:16.038Z,3.20
2018-03-04T01:29:43.043Z,3.20
2018-03-04T01:32:10.059Z,3.20
2018-03-04T01:34:37.833Z,3.10
2018-03-04T01:37:05.603Z,3.20
2018-03-04T01:39:33.371Z,3.20
2018-03-04T01:42:01.170Z,3.20
2018-03-04T01:44:28.175Z,3.30
2018-03-04T01:46:55.934Z,3.30
2018-03-04T01:49:23.708Z,3.30
2018-03-04T01:51:51.619Z,3.20
2018-03-04T01:54:18.631Z,3.40
2018-03-04T01:56:45.626Z,3.50
2018-03-04T01:59:12.638Z,3.40
2018-03-04T02:01:39.636Z,3.30
2018-03-04T02:04:07.417Z,3.20
2018-03-04T02:06:35.186Z,3.10
2018-03-04T02:09:02.199Z,3.10
2018-03-04T02:11:29.203Z,3.10
2018-03-04T02:13:56.207Z,3.10
2018-03-04T02:16:23.975Z,3.00
2018-03-04T02:18:51.750Z,2.90
2018-03-04T02:21:18.757Z,2.90
2018-03-04T02:23:45.769Z,2.90
2018-03-04T02:26:12.766Z,2.90
2018-03-04T02:28:40.537Z,2.70
2018-03-04T02:31:08.316Z,2.70
2018-03-04T02:33:35.336Z,2.90
2018-03-04T02:36:03.106Z,2.80
2018-03-04T02:38:30.875Z,2.80
2018-03-04T02:40:58.634Z,2.80
2018-03-04T02:43:26.413Z,2.60
2018-03-04T02:45:53.421Z,2.60
2018-03-04T02:48:20.426Z,2.50
2018-03-04T02:50:47.431Z,2.50
2018-03-04T02:53:15.212Z,2.50
2018-03-04T02:55:42.223Z,2.60
2018-03-04T02:58:09.228Z,2.50
2018-03-04T03:00:37.048Z,2.50
2018-03-04T03:03:04.815Z,2.50
2018-03-04T03:05:32.583Z,2.50
2018-03-04T03:08:00.362Z,2.60
2018-03-04T03:10:27.363Z,2.50
2018-03-04T03:12:54.361Z,2.70
2018-03-04T03:15:21.373Z,2.60
2018-03-04T03:17:49.142Z,2.30
2018-03-04T03:20:16.912Z,2.20
2018-03-04T03:22:44.671Z,2.20
2018-03-04T03:25:12.454Z,2.10
2018-03-04T03:27:39.466Z,2.10
2018-03-04T03:30:06.479Z,2.10
2018-03-04T03:32:33.476Z,2.10
2018-03-04T03:35:01.248Z,2.30
2018-03-04T03:37:29.005Z,2.10
2018-03-04T03:39:56.774Z,2.10
2018-03-04T03:42:24.534Z,2.00
2018-03-04T03:44:52.314Z,1.90
2018-03-04T03:47:19.320Z,2.00
2018-03-04T03:49:46.317Z,1.90
2018-03-04T03:52:13.318Z,1.90
2018-03-04T03:54:41.097Z,1.90
2018-03-04T03:57:08.863Z,1.80
2018-03-04T03:59:35.886Z,1.70
2018-03-04T04:02:02.894Z,1.70
2018-03-04T04:04:29.896Z,1.60
2018-03-04T04:06:57.667Z,1.60
2018-03-04T04:09:24.680Z,1.50
2018-03-04T04:11:51.688Z,1.50
2018-03-04T04:14:18.682Z,1.60
2018-03-04T04:16:46.459Z,1.50
2018-03-04T04:19:14.219Z,1.50
2018-03-04T04:21:42.009Z,1.40
2018-03-04T04:24:09.019Z,1.40
2018-03-04T04:26:36.808Z,1.40
2018-03-04T04:29:03.816Z,1.30
2018-03-04T04:31:30.834Z,1.40
2018-03-04T04:33:57.835Z,1.40
2018-03-04T04:36:25.606Z,1.20
2018-03-04T04:38:52.615Z,1.30
2018-03-04T04:41:19.649Z,1.20
2018-03-04T04:43:46.643Z,1.30
2018-03-04T04:46:13.656Z,1.10
2018-03-04T04:48:40.667Z,1.00
2018-03-04T04:51:07.659Z,0.90
2018-03-04T04:53:35.432Z,0.80
2018-03-04T04:56:03.211Z,0.90
2018-03-04T04:58:30.211Z,0.80
2018-03-04T05:00:57.223Z,0.80
2018-03-04T05:03:24.242Z,0.70
2018-03-04T05:05:51.252Z,0.70
2018-03-04T05:08:18.274Z,0.60
2018-03-04T05:10:45.296Z,0.50
2018-03-04T05:13:12.312Z,0.50
2018-03-04T05:15:40.078Z,0.50
2018-03-04T05:18:07.846Z,0.90
2018-03-04T05:20:35.607Z,0.60
2018-03-04T05:23:03.391Z,0.50
2018-03-04T05:25:30.392Z,0.60
2018-03-04T05:27:57.410Z,0.40
2018-03-04T05:30:24.411Z,0.40
2018-03-04T05:32:52.195Z,0.20
2018-03-04T05:35:19.195Z,0.30
2018-03-04T05:37:46.205Z,0.10
2018-03-04T05:40:13.209Z,0.10
2018-03-04T05:42:41.003Z,0.10
2018-03-04T05:45:08.040Z,0.30
2018-03-04T05:47:35.794Z,0.20
2018-03-04T05:50:02.799Z,0.20
2018-03-04T05:52:29.821Z,0.30
2018-03-04T05:54:56.838Z,0.40
2018-03-04T05:57:23.858Z,0.40
2018-03-04T05:59:51.619Z,0.60
2018-03-04T06:02:19.395Z,0.30
2018-03-04T06:04:47.158Z,0.30
2018-03-04T06:07:14.973Z,0.20
2018-03-04T06:09:41.952Z,0.40
2018-03-04T06:12:09.719Z,0.10
2018-03-04T06:14:37.486Z,0.00
2018-03-04T06:17:05.257Z,0.10
2018-03-04T06:19:33.030Z,0.00
2018-03-04T06:22:00.034Z,0.10
2018-03-04T06:24:27.049Z,0.30
2018-03-04T06:26:54.050Z,0.00
2018-03-04T06:29:21.832Z,0.20
2018-03-04T06:31:48.830Z,0.20
2018-03-04T06:34:15.839Z,0.30
2018-03-04T06:36:42.841Z,0.40
2018-03-04T06:39:09.851Z,0.20
2018-03-04T06:41:36.866Z,0.20
2018-03-04T06:44:03.889Z,0.40
2018-03-04T06:46:31.657Z,0.60
2018-03-04T06:48:59.427Z,0.50
2018-03-04T06:51:26.448Z,0.50
2018-03-04T06:53:53.463Z,0.60
2018-03-04T06:56:20.480Z,0.70
2018-03-04T06:58:47.486Z,0.80
2018-03-04T07:01:15.255Z,1.10
2018-03-04T07:03:43.027Z,1.20
2018-03-04T07:06:10.796Z,1.40
2018-03-04T07:08:38.582Z,1.40
2018-03-04T07:11:05.597Z,1.60
2018-03-04T07:13:33.355Z,1.90
2018-03-04T07:16:01.136Z,1.90
2018-03-04T07:18:28.146Z,1.90
2018-03-04T07:20:55.157Z,2.10
2018-03-04T07:23:22.190Z,2.20
2018-03-04T07:25:49.636Z,2.30
2018-03-04T07:28:16.643Z,2.40
2018-03-04T07:30:43.652Z,2.80
2018-03-04T07:33:10.669Z,3.20
2018-03-04T07:35:38.442Z,3.30
2018-03-04T07:38:05.460Z,3.30
2018-03-04T07:40:32.472Z,3.20
2018-03-04T07:42:59.477Z,3.30
2018-03-04T07:45:27.246Z,3.80
2018-03-04T07:47:54.259Z,3.70
2018-03-04T07:50:21.262Z,4.00
2018-03-04T07:52:48.269Z,4.30
2018-03-04T07:55:16.041Z,4.80
2018-03-04T07:57:43.807Z,5.00
2018-03-04T08:00:11.578Z,5.10
2018-03-04T08:02:38.581Z,5.10
2018-03-04T08:05:05.583Z,5.30
2018-03-04T08:07:32.586Z,5.50
2018-03-04T08:10:00.371Z,6.00
2018-03-04T08:12:27.387Z,6.00
2018-03-04T08:14:54.403Z,6.30
2018-03-04T08:17:21.423Z,6.80
2018-03-04T08:19:48.434Z,7.00
2018-03-04T08:22:16.215Z,7.30
2018-03-04T08:24:58.907Z,7.60
2018-03-04T08:27:31.711Z,7.60
2018-03-04T08:29:59.484Z,8.20
2018-03-04T08:32:26.956Z,8.10
2018-03-04T08:34:54.419Z,8.50
2018-03-04T08:37:21.889Z,8.70
2018-03-04T08:39:49.357Z,9.00
2018-03-04T08:42:16.364Z,9.20
2018-03-04T08:44:43.362Z,9.00
2018-03-04T08:47:10.382Z,8.20
2018-03-04T08:49:37.843Z,8.20
2018-03-04T08:52:04.861Z,8.30
2018-03-04T08:54:31.854Z,8.70
2018-03-04T08:56:59.321Z,9.10
2018-03-04T08:59:26.768Z,9.20
2018-03-04T09:01:54.228Z,9.60
2018-03-04T09:04:21.222Z,9.90
2018-03-04T09:06:48.231Z,9.90
2018-03-04T09:09:15.999Z,9.80
2018-03-04T09:11:44.568Z,10.10
2018-03-04T09:14:11.652Z,10.10
2018-03-04T09:16:39.125Z,10.40
2018-03-04T09:19:09.506Z,10.80
2018-03-04T09:21:37.671Z,10.50
2018-03-04T09:24:08.426Z,10.30
2018-03-04T09:26:37.469Z,10.40
2018-03-04T09:29:05.057Z,10.80
2018-03-04T09:31:32.515Z,10.60
2018-03-04T09:33:59.560Z,10.60
2018-03-04T09:36:28.954Z,10.10
2018-03-04T09:38:56.903Z,10.00
2018-03-04T09:41:25.281Z,10.00
2018-03-04T09:43:53.627Z,9.90
2018-03-04T09:46:21.851Z,9.80
2018-03-04T09:48:50.773Z,9.80
2018-03-04T09:51:19.053Z,9.80
2018-03-04T09:53:46.562Z,9.70
2018-03-04T09:56:14.575Z,9.90
2018-03-04T09:58:42.429Z,10.30
2018-03-04T10:01:10.310Z,10.70
2018-03-04T10:03:38.449Z,11.20
2018-03-04T10:06:06.670Z,11.60
2018-03-04T10:08:34.694Z,11.80
2018-03-04T10:11:03.499Z,12.10
2018-03-04T10:13:33.559Z,12.30
2018-03-04T10:16:02.195Z,12.80
2018-03-04T10:18:31.361Z,13.40
2018-03-04T10:20:59.286Z,13.50
2018-03-04T10:23:27.880Z,13.70
2018-03-04T10:25:55.984Z,14.00
2018-03-04T10:28:24.386Z,14.50
2018-03-04T10:30:52.654Z,14.20
2018-03-04T10:33:21.008Z,14.40
2018-03-04T10:35:49.502Z,14.20
2018-03-04T10:38:18.183Z,14.20
2018-03-04T10:40:46.165Z,14.80
2018-03-04T10:43:14.660Z,14.80
2018-03-04T10:45:44.237Z,14.60
2018-03-04T10:48:14.093Z,14.30
2018-03-04T10:50:45.494Z,15.00
2018-03-04T10:53:15.767Z,15.30
2018-03-04T10:55:45.295Z,15.30
2018-03-04T10:58:14.940Z,16.50
2018-03-04T11:00:47.334Z,16.50
2018-03-04T11:03:18.690Z,16.50
2018-03-04T11:05:46.843Z,16.30
2018-03-04T11:08:15.028Z,16.80
2018-03-04T11:10:44.299Z,17.00
2018-03-04T11:13:12.053Z,16.40
2018-03-04T11:15:40.726Z,16.70
2018-03-04T11:18:08.796Z,16.70
2018-03-04T11:20:37.547Z,16.70
2018-03-04T11:23:06.413Z,16.80
2018-03-04T11:25:34.953Z,17.40
2018-03-04T11:28:03.631Z,17.30
2018-03-04T11:30:36.685Z,17.00
2018-03-04T11:33:06.956Z,16.90
2018-03-04T11:35:37.854Z,16.70
2018-03-04T11:38:07.995Z,16.60
2018-03-04T11:40:36.686Z,16.70
2018-03-04T11:43:04.458Z,16.60
2018-03-04T11:45:32.320Z,16.80
2018-03-04T11:48:00.671Z,17.00
2018-03-04T11:50:29.086Z,17.20
2018-03-04T11:52:58.158Z,18.00
2018-03-04T11:55:25.537Z,18.70
2018-03-04T11:57:53.117Z,18.30
2018-03-04T12:00:20.455Z,17.60
2018-03-04T12:02:51.600Z,17.60
2018-03-04T12:05:19.121Z,17.60
2018-03-04T12:07:46.429Z,17.50
2018-03-04T12:10:15.070Z,18.80
2018-03-04T12:12:42.698Z,18.80
2018-03-04T12:15:10.206Z,18.90
2018-03-04T12:17:38.338Z,18.00
2018-03-04T12:20:05.886Z,18.80
2018-03-04T12:22:33.402Z,18.60
2018-03-04T12:25:01.084Z,17.90
2018-03-04T12:27:28.768Z,17.70
2018-03-04T12:29:56.098Z,17.60
2018-03-04T12:32:25.093Z,17.50
2018-03-04T12:34:52.602Z,17.20
2018-03-04T12:37:20.849Z,16.60
2018-03-04T12:39:49.489Z,15.70
2018-03-04T12:42:16.938Z,15.40
2018-03-04T12:44:46.757Z,15.80
2018-03-04T12:47:14.165Z,15.80
2018-03-04T12:49:42.028Z,15.70
2018-03-04T12:52:09.547Z,16.10
2018-03-04T12:54:38.172Z,16.30
2018-03-04T12:57:06.460Z,15.90
2018-03-04T12:59:34.316Z,15.60
2018-03-04T13:02:02.450Z,15.80
2018-03-04T13:04:31.067Z,15.90
2018-03-04T13:07:00.125Z,16.20
2018-03-04T13:09:28.952Z,15.90
2018-03-04T13:11:57.480Z,15.60
2018-03-04T13:14:25.810Z,15.10
2018-03-04T13:16:53.588Z,15.10
2018-03-04T13:19:21.058Z,14.60
2018-03-04T13:21:48.728Z,14.50
2018-03-04T13:24:17.172Z,14.20
2018-03-04T13:26:46.435Z,14.60
2018-03-04T13:29:13.968Z,14.60
2018-03-04T13:31:41.853Z,15.10
2018-03-04T13:34:09.281Z,15.10
2018-03-04T13:36:36.958Z,14.70
2018-03-04T13:39:04.496Z,14.70
2018-03-04T13:41:32.298Z,14.30
2018-03-04T13:44:01.814Z,14.50
2018-03-04T13:46:29.353Z,14.50
2018-03-04T13:48:56.799Z,14.50
2018-03-04T13:51:24.204Z,14.80
2018-03-04T13:53:51.443Z,14.70
2018-03-04T13:56:18.994Z,14.30
2018-03-04T13:58:46.308Z,14.30
2018-03-04T14:01:14.959Z,14.40
2018-03-04T14:03:42.241Z,14.40
2018-03-04T14:06:10.207Z,14.30
2018-03-04T14:08:37.956Z,14.30
2018-03-04T14:11:05.599Z,14.40
2018-03-04T14:13:33.527Z,14.30
2018-03-04T14:16:02.932Z,14.30
2018-03-04T14:18:30.602Z,14.30
2018-03-04T14:20:58.957Z,14.20
2018-03-04T14:23:27.081Z,13.80
2018-03-04T14:25:55.459Z,14.20
2018-03-04T14:28:23.159Z,14.20
2018-03-04T14:30:52.887Z,13.70
2018-03-04T14:33:21.624Z,13.10
2018-03-04T14:35:49.443Z,13.10
2018-03-04T14:38:17.285Z,13.00
2018-03-04T14:40:47.161Z,12.90
2018-03-04T14:43:14.902Z,12.50
2018-03-04T14:45:42.612Z,12.50
2018-03-04T14:48:10.698Z,12.50
2018-03-04T14:50:38.654Z,12.20
2018-03-04T14:53:06.351Z,12.00
2018-03-04T14:55:34.888Z,11.70
2018-03-04T14:58:02.689Z,11.70
2018-03-04T15:00:31.056Z,11.30
2018-03-04T15:02:59.461Z,11.40
2018-03-04T15:05:26.607Z,11.30
2018-03-04T15:07:54.991Z,11.30
2018-03-04T15:10:24.808Z,11.20
2018-03-04T15:12:53.072Z,11.20
2018-03-04T15:15:20.906Z,11.20
2018-03-04T15:17:49.684Z,11.30
2018-03-04T15:20:18.087Z,11.20
2018-03-04T15:22:45.493Z,11.20
2018-03-04T15:25:13.332Z,11.20
2018-03-04T15:27:40.356Z,11.20
2018-03-04T15:30:08.143Z,11.20
2018-03-04T15:32:35.150Z,11.20
2018-03-04T15:35:02.184Z,11.10
2018-03-04T15:37:29.178Z,11.20
2018-03-04T15:39:56.206Z,11.10
2018-03-04T15:42:23.978Z,11.20
2018-03-04T15:44:51.757Z,11.30
2018-03-04T15:47:18.779Z,11.30
2018-03-04T15:49:46.559Z,11.20
2018-03-04T15:52:14.338Z,11.20
2018-03-04T15:54:41.358Z,11.20
2018-03-04T15:57:09.135Z,11.00
2018-03-04T15:59:36.160Z,10.90
2018-03-04T16:02:03.956Z,10.90
2018-03-04T16:04:30.983Z,10.80
2018-03-04T16:06:58.763Z,10.60
2018-03-04T16:09:25.774Z,10.60
2018-03-04T16:11:52.791Z,10.50
2018-03-04T16:14:19.798Z,10.50
2018-03-04T16:16:46.823Z,10.40
2018-03-04T16:19:14.607Z,10.30
2018-03-04T16:21:41.665Z,10.30
2018-03-04T16:24:08.635Z,10.30
2018-03-04T16:26:35.658Z,10.20
2018-03-04T16:29:02.672Z,10.20
2018-03-04T16:31:30.454Z,10.00
2018-03-04T16:33:57.463Z,10.00
2018-03-04T16:36:24.487Z,10.00
2018-03-04T16:38:51.514Z,9.90
2018-03-04T16:41:18.512Z,9.90
2018-03-04T16:43:46.296Z,9.80
2018-03-04T16:46:14.077Z,9.80
2018-03-04T16:48:41.085Z,9.80
2018-03-04T16:51:08.857Z,9.60
2018-03-04T16:53:36.635Z,9.60
2018-03-04T16:56:03.645Z,9.50
2018-03-04T16:58:30.655Z,9.40
2018-03-04T17:00:57.659Z,9.40
2018-03-04T17:03:25.451Z,9.20
2018-03-04T17:05:52.446Z,9.20
2018-03-04T17:08:19.461Z,9.10
2018-03-04T17:10:46.459Z,9.00
2018-03-04T17:13:14.235Z,8.80
2018-03-04T17:15:41.247Z,8.80
2018-03-04T17:18:08.270Z,8.70
2018-03-04T17:20:35.274Z,8.70
2018-03-04T17:23:02.283Z,8.70
2018-03-04T17:25:29.293Z,8.70
2018-03-04T17:27:56.297Z,8.60
2018-03-04T17:30:24.075Z,8.50
2018-03-04T17:32:51.087Z,8.50
2018-03-04T17:35:18.111Z,8.50
2018-03-04T17:37:45.112Z,8.50
2018-03-04T17:40:12.130Z,8.50
2018-03-04T17:42:39.899Z,8.60
2018-03-04T17:45:07.685Z,8.60
2018-03-04T17:47:34.698Z,8.50
2018-03-04T17:50:01.711Z,8.50
2018-03-04T17:52:28.713Z,8.50
2018-03-04T17:54:56.502Z,8.50
2018-03-04T17:57:23.506Z,8.50
2018-03-04T17:59:51.279Z,8.50
2018-03-04T18:02:19.048Z,8.50
2018-03-04T18:04:46.838Z,8.50
2018-03-04T18:07:13.848Z,8.50
2018-03-04T18:09:41.627Z,8.40
2018-03-04T18:12:08.642Z,8.50
2018-03-04T18:14:35.642Z,8.50
2018-03-04T18:17:02.654Z,8.50
2018-03-04T18:19:30.431Z,8.50
2018-03-04T18:21:57.447Z,8.50
2018-03-04T18:24:24.467Z,8.50
2018-03-04T18:26:51.466Z,8.50
2018-03-04T18:29:18.498Z,8.50
2018-03-04T18:31:46.274Z,8.50
2018-03-04T18:34:13.319Z,8.50
2018-03-04T18:36:41.084Z,8.50
2018-03-04T18:39:08.109Z,8.40
2018-03-04T18:41:35.131Z,8.40
2018-03-04T18:44:02.149Z,8.40
2018-03-04T18:46:29.167Z,8.40
2018-03-04T18:48:56.940Z,8.40
2018-03-04T18:51:23.962Z,8.40
2018-03-04T18:53:51.736Z,8.40
2018-03-04T18:56:19.537Z,8.40
2018-03-04T18:58:46.537Z,8.40
2018-03-04T19:01:14.338Z,8.40
2018-03-04T19:03:41.351Z,8.40
2018-03-04T19:06:09.123Z,8.50
2018-03-04T19:08:36.907Z,8.50
2018-03-04T19:11:03.919Z,8.40
2018-03-04T19:13:31.735Z,8.50
2018-03-04T19:15:58.717Z,8.40
2018-03-04T19:18:25.731Z,8.50
2018-03-04T19:20:52.741Z,8.40
2018-03-04T19:23:19.751Z,8.40
2018-03-04T19:25:46.767Z,8.50
2018-03-04T19:28:13.775Z,8.40
2018-03-04T19:30:41.549Z,8.40
2018-03-04T19:33:08.560Z,8.40
2018-03-04T19:35:36.337Z,8.40
2018-03-04T19:38:04.110Z,8.40
2018-03-04T19:40:31.119Z,8.40
2018-03-04T19:42:58.122Z,8.40
2018-03-04T19:45:25.139Z,8.40
2018-03-04T19:47:52.911Z,8.40
2018-03-04T19:50:19.938Z,8.40
2018-03-04T19:52:47.744Z,8.40
2018-03-04T19:55:14.736Z,8.40
2018-03-04T19:57:41.751Z,8.40
2018-03-04T20:00:08.760Z,8.40
2018-03-04T20:02:35.771Z,8.40
2018-03-04T20:05:02.775Z,8.40
2018-03-04T20:07:29.855Z,8.30
2018-03-04T20:09:56.836Z,8.10
2018-03-04T20:12:24.635Z,7.90
2018-03-04T20:14:51.635Z,8.00
2018-03-04T20:17:19.433Z,7.90
2018-03-04T20:19:46.476Z,7.90
2018-03-04T20:22:13.487Z,7.90
2018-03-04T20:24:41.261Z,7.90
2018-03-04T20:27:09.034Z,8.00
2018-03-04T20:29:36.055Z,8.00
2018-03-04T20:32:03.075Z,7.80
2018-03-04T20:34:30.078Z,7.70
2018-03-04T20:36:57.135Z,7.70
2018-03-04T20:39:24.898Z,7.30
2018-03-04T20:41:51.909Z,7.20
2018-03-04T20:44:19.690Z,7.00
2018-03-04T20:46:46.715Z,7.00
2018-03-04T20:49:13.734Z,7.00
2018-03-04T20:51:40.750Z,7.00
2018-03-04T20:54:07.763Z,7.00
2018-03-04T20:56:35.541Z,7.10
2018-03-04T20:59:02.555Z,7.10
2018-03-04T21:01:29.576Z,7.10
2018-03-04T21:03:56.596Z,6.90
2018-03-04T21:06:23.606Z,6.70
2018-03-04T21:08:51.375Z,6.50
2018-03-04T21:11:19.171Z,6.50
2018-03-04T21:13:46.935Z,6.50
2018-03-04T21:16:13.937Z,6.40
2018-03-04T21:18:41.713Z,6.60
2018-03-04T21:21:09.480Z,6.50
2018-03-04T21:23:37.268Z,6.50
2018-03-04T21:26:05.034Z,6.30
2018-03-04T21:28:32.045Z,6.30
2018-03-04T21:30:59.841Z,6.10
2018-03-04T21:33:26.849Z,6.10
2018-03-04T21:35:54.628Z,6.20
2018-03-04T21:38:22.420Z,6.30
2018-03-04T21:40:49.422Z,6.30
2018-03-04T21:43:17.215Z,6.20
2018-03-04T21:45:44.207Z,6.20
2018-03-04T21:48:11.747Z,6.20
2018-03-04T21:50:38.738Z,6.10
2018-03-04T21:53:06.507Z,6.00
2018-03-04T21:55:34.282Z,5.90
2018-03-04T21:58:01.291Z,5.90
2018-03-04T22:00:28.314Z,5.90
2018-03-04T22:02:55.330Z,5.80
2018-03-04T22:05:22.343Z,5.70
2018-03-04T22:07:49.371Z,5.80
2018-03-04T22:10:16.401Z,5.90
2018-03-04T22:12:43.406Z,6.10
2018-03-04T22:15:10.411Z,6.40
2018-03-04T22:17:37.423Z,6.60
2018-03-04T22:20:04.427Z,6.60
2018-03-04T22:22:32.218Z,6.40
2018-03-04T22:24:59.229Z,6.40
2018-03-04T22:27:26.995Z,6.30
2018-03-04T22:29:54.767Z,6.10
2018-03-04T22:32:22.554Z,6.00
2018-03-04T22:34:49.562Z,6.00
2018-03-04T22:37:16.579Z,6.00
2018-03-04T22:39:43.617Z,5.80
2018-03-04T22:42:10.618Z,5.80
2018-03-04T22:44:37.632Z,5.80
2018-03-04T22:47:04.630Z,5.80
2018-03-04T22:49:31.646Z,5.90
2018-03-04T22:51:59.707Z,5.70
2018-03-04T22:54:26.775Z,5.70
2018-03-04T22:56:53.792Z,5.70
2018-03-04T22:59:20.811Z,5.60
2018-03-04T23:01:47.830Z,5.60
2018-03-04T23:04:14.846Z,5.60
2018-03-04T23:06:42.619Z,5.70
2018-03-04T23:09:09.632Z,5.70
2018-03-04T23:11:36.719Z,5.80
2018-03-04T23:14:03.733Z,6.00
2018-03-04T23:16:30.726Z,6.10
2018-03-04T23:18:57.736Z,6.00
2018-03-04T23:21:25.495Z,6.20
2018-03-04T23:23:53.278Z,6.30
2018-03-04T23:26:20.279Z,6.30
2018-03-04T23:28:47.294Z,6.40
2018-03-04T23:31:14.298Z,6.50
2018-03-04T23:33:42.074Z,6.70
2018-03-04T23:36:09.847Z,6.80
2018-03-04T23:38:36.850Z,6.80
2018-03-04T23:41:03.856Z,6.80
2018-03-04T23:43:30.862Z,6.90
2018-03-04T23:45:58.627Z,7.00
2018-03-04T23:48:26.402Z,7.00
2018-03-04T23:50:53.404Z,7.00
2018-03-04T23:53:20.443Z,7.00
2018-03-04T23:55:47.439Z,6.90
2018-03-04T23:58:15.220Z,6.70
